createdAt,value
2018-01-15T00:01:38.193Z,101653.54
2018-01-15T00:04:06.087Z,101646.14
2018-01-15T00:06:33.902Z,101637.30
2018-01-15T00:09:01.450Z,101623.42
2018-01-15T00:11:29.035Z,101619.11
2018-01-15T00:13:56.689Z,101615.04
2018-01-15T00:16:24.328Z,101604.83
2018-01-15T00:18:51.964Z,101605.66
2018-01-15T00:21:19.629Z,101604.59
2018-01-15T00:23:47.532Z,101599.45
2018-01-15T00:26:15.199Z,101598.61
2018-01-15T00:28:42.793Z,101601.28
2018-01-15T00:31:10.666Z,101602.00
2018-01-15T00:33:38.292Z,101604.98
2018-01-15T00:36:06.126Z,101603.37
2018-01-15T00:38:33.709Z,101594.84
2018-01-15T00:41:01.558Z,101596.52
2018-01-15T00:43:29.187Z,101593.89
2018-01-15T00:45:56.997Z,101586.39
2018-01-15T00:48:24.649Z,101577.88
2018-01-15T00:50:52.252Z,101574.50
2018-01-15T00:53:19.822Z,101567.60
2018-01-15T00:55:47.450Z,101561.58
2018-01-15T00:58:15.057Z,101563.41
2018-01-15T01:00:43.017Z,101551.82
2018-01-15T01:03:10.930Z,101550.67
2018-01-15T01:05:38.553Z,101542.63
2018-01-15T01:08:06.235Z,101537.22
2018-01-15T01:10:34.024Z,101534.97
2018-01-15T01:13:01.746Z,101542.21
2018-01-15T01:15:29.428Z,101538.02
2018-01-15T01:17:57.001Z,101536.72
2018-01-15T01:20:24.967Z,101541.37
2018-01-15T01:22:53.140Z,101538.28
2018-01-15T01:25:20.794Z,101535.23
2018-01-15T01:27:48.432Z,101531.38
2018-01-15T01:30:16.299Z,101521.24
2018-01-15T01:32:43.936Z,101523.30
2018-01-15T01:35:11.614Z,101509.99
2018-01-15T01:37:39.259Z,101512.45
2018-01-15T01:40:06.945Z,101509.44
2018-01-15T01:42:34.819Z,101502.36
2018-01-15T01:45:02.638Z,101498.23
2018-01-15T01:47:30.252Z,101492.80
2018-01-15T01:49:58.155Z,101498.33
2018-01-15T01:52:25.830Z,101497.86
2018-01-15T01:54:53.499Z,101488.59
2018-01-15T01:57:21.291Z,101486.59
2018-01-15T01:59:49.058Z,101486.53
2018-01-15T02:02:16.899Z,101479.92
2018-01-15T02:04:44.617Z,101474.19
2018-01-15T02:07:12.286Z,101469.83
2018-01-15T02:09:40.241Z,101459.03
2018-01-15T02:12:07.876Z,101461.27
2018-01-15T02:14:35.587Z,101456.91
2018-01-15T02:17:03.320Z,101447.86
2018-01-15T02:19:30.987Z,101442.28
2018-01-15T02:21:58.723Z,101433.73
2018-01-15T02:24:26.441Z,101432.70
2018-01-15T02:26:54.716Z,101438.76
2018-01-15T02:29:22.366Z,101434.69
2018-01-15T02:31:50.071Z,101438.39
2018-01-15T02:34:18.332Z,101435.48
2018-01-15T02:36:46.144Z,101430.15
2018-01-15T02:39:13.857Z,101418.99
2018-01-15T02:41:41.612Z,101420.74
2018-01-15T02:44:09.269Z,101418.48
2018-01-15T02:46:36.872Z,101412.91
2018-01-15T02:49:04.684Z,101411.46
2018-01-15T02:51:32.307Z,101406.30
2018-01-15T02:54:00.070Z,101404.72
2018-01-15T02:56:28.312Z,101402.53
2018-01-15T02:58:56.139Z,101389.98
2018-01-15T03:01:23.772Z,101385.86
2018-01-15T03:03:51.505Z,101377.78
2018-01-15T03:06:19.294Z,101373.30
2018-01-15T03:08:47.753Z,101372.68
2018-01-15T03:11:15.327Z,101363.63
2018-01-15T03:13:42.923Z,101351.87
2018-01-15T03:16:10.546Z,101349.38
2018-01-15T03:18:38.138Z,101345.43
2018-01-15T03:21:05.715Z,101329.75
2018-01-15T03:23:33.321Z,101320.41
2018-01-15T03:26:00.960Z,101303.10
2018-01-15T03:28:28.642Z,101305.70
2018-01-15T03:30:56.310Z,101309.82
2018-01-15T03:33:24.019Z,101305.57
2018-01-15T03:35:51.691Z,101301.32
2018-01-15T03:38:19.258Z,101298.34
2018-01-15T03:40:46.871Z,101298.34
2018-01-15T03:43:14.768Z,101294.92
2018-01-15T03:45:42.687Z,101282.12
2018-01-15T03:48:10.487Z,101285.25
2018-01-15T03:50:38.420Z,101283.14
2018-01-15T03:53:05.989Z,101274.86
2018-01-15T03:55:33.572Z,101259.84
2018-01-15T03:58:01.175Z,101262.16
2018-01-15T04:00:28.812Z,101260.14
2018-01-15T04:02:56.438Z,101253.72
2018-01-15T04:05:24.048Z,101253.63
2018-01-15T04:07:51.656Z,101256.44
2018-01-15T04:10:19.301Z,101246.75
2018-01-15T04:12:46.980Z,101236.86
2018-01-15T04:15:14.585Z,101224.34
2018-01-15T04:17:42.464Z,101214.48
2018-01-15T04:20:10.034Z,101214.98
2018-01-15T04:22:37.736Z,101210.47
2018-01-15T04:25:05.310Z,101208.89
2018-01-15T04:27:32.874Z,101205.05
2018-01-15T04:30:00.814Z,101200.09
2018-01-15T04:32:28.399Z,101188.77
2018-01-15T04:34:56.029Z,101187.77
2018-01-15T04:37:23.594Z,101187.27
2018-01-15T04:39:51.286Z,101190.48
2018-01-15T04:42:19.225Z,101184.77
2018-01-15T04:44:47.071Z,101172.37
2018-01-15T04:47:14.782Z,101165.48
2018-01-15T04:49:42.357Z,101154.16
2018-01-15T04:52:10.194Z,101152.03
2018-01-15T04:54:37.748Z,101136.83
2018-01-15T04:57:05.388Z,101139.36
2018-01-15T04:59:33.276Z,101141.91
2018-01-15T05:02:00.909Z,101128.21
2018-01-15T05:04:28.510Z,101123.83
2018-01-15T05:06:56.108Z,101106.73
2018-01-15T05:09:23.831Z,101110.08
2018-01-15T05:11:51.415Z,101101.17
2018-01-15T05:14:19.009Z,101088.92
2018-01-15T05:16:46.635Z,101090.01
2018-01-15T05:19:14.236Z,101079.22
2018-01-15T05:21:41.802Z,101073.91
2018-01-15T05:24:09.449Z,101061.63
2018-01-15T05:26:37.020Z,101061.88
2018-01-15T05:29:04.857Z,101063.75
2018-01-15T05:31:32.781Z,101067.38
2018-01-15T05:34:01.062Z,101056.40
2018-01-15T05:36:28.648Z,101051.75
2018-01-15T05:38:56.583Z,101048.53
2018-01-15T05:41:24.220Z,101042.86
2018-01-15T05:43:51.939Z,101039.42
2018-01-15T05:46:19.539Z,101040.67
2018-01-15T05:48:47.173Z,101031.95
2018-01-15T05:51:14.991Z,101033.75
2018-01-15T05:53:42.687Z,101031.81
2018-01-15T05:56:10.263Z,101016.66
2018-01-15T05:58:37.920Z,101013.69
2018-01-15T06:01:05.527Z,101006.87
2018-01-15T06:03:33.172Z,101011.72
2018-01-15T06:06:00.729Z,101011.75
2018-01-15T06:08:29.381Z,101008.54
2018-01-15T06:10:56.950Z,101005.99
2018-01-15T06:13:24.758Z,101002.23
2018-01-15T06:15:52.426Z,100998.89
2018-01-15T06:18:19.990Z,101000.27
2018-01-15T06:20:47.549Z,101000.52
2018-01-15T06:23:15.414Z,100991.83
2018-01-15T06:25:43.107Z,100997.62
2018-01-15T06:28:10.938Z,100984.78
2018-01-15T06:30:38.552Z,100980.58
2018-01-15T06:33:06.217Z,100981.12
2018-01-15T06:35:33.840Z,100975.36
2018-01-15T06:38:01.732Z,100979.25
2018-01-15T06:40:29.344Z,100976.28
2018-01-15T06:42:56.983Z,100963.96
2018-01-15T06:45:24.568Z,100959.25
2018-01-15T06:47:52.368Z,100954.03
2018-01-15T06:50:20.052Z,100950.81
2018-01-15T06:52:47.619Z,100947.22
2018-01-15T06:55:15.222Z,100943.74
2018-01-15T06:57:42.887Z,100939.86
2018-01-15T07:00:10.491Z,100935.84
2018-01-15T07:02:38.058Z,100931.39
2018-01-15T07:05:05.876Z,100936.64
2018-01-15T07:07:33.515Z,100927.25
2018-01-15T07:10:01.127Z,100926.08
2018-01-15T07:12:28.740Z,100927.73
2018-01-15T07:14:56.432Z,100922.45
2018-01-15T07:17:24.116Z,100915.50
2018-01-15T07:19:51.684Z,100906.81
2018-01-15T07:22:19.631Z,100897.73
2018-01-15T07:24:47.193Z,100895.32
2018-01-15T07:27:14.850Z,100890.51
2018-01-15T07:29:42.491Z,100887.68
2018-01-15T07:32:10.087Z,100890.28
2018-01-15T07:34:37.796Z,100886.02
2018-01-15T07:37:05.426Z,100876.53
2018-01-15T07:39:33.375Z,100870.80
2018-01-15T07:42:01.108Z,100865.19
2018-01-15T07:44:28.718Z,100861.56
2018-01-15T07:46:56.363Z,100856.08
2018-01-15T07:49:23.939Z,100863.75
2018-01-15T07:51:51.600Z,100859.48
2018-01-15T07:54:19.356Z,100849.45
2018-01-15T07:56:46.945Z,100848.14
2018-01-15T07:59:14.504Z,100844.28
2018-01-15T08:01:43.180Z,100835.05
2018-01-15T08:04:10.824Z,100845.52
2018-01-15T08:06:38.432Z,100841.65
2018-01-15T08:09:06.023Z,100833.77
2018-01-15T08:11:33.915Z,100826.45
2018-01-15T08:14:01.877Z,100816.15
2018-01-15T08:16:29.490Z,100801.08
2018-01-15T08:18:57.088Z,100797.70
2018-01-15T08:21:24.722Z,100787.30
2018-01-15T08:23:52.392Z,100784.77
2018-01-15T08:26:20.022Z,100774.33
2018-01-15T08:28:47.953Z,100783.73
2018-01-15T08:31:15.628Z,100777.22
2018-01-15T08:33:43.608Z,100769.73
2018-01-15T08:36:11.165Z,100769.62
2018-01-15T08:38:38.806Z,100768.17
2018-01-15T08:41:06.419Z,100752.13
2018-01-15T08:43:33.985Z,100751.06
2018-01-15T08:46:01.909Z,100746.55
2018-01-15T08:48:29.509Z,100733.03
2018-01-15T08:50:57.089Z,100728.47
2018-01-15T08:53:24.705Z,100716.05
2018-01-15T08:55:52.502Z,100716.47
2018-01-15T08:58:20.107Z,100718.35
2018-01-15T09:00:47.799Z,100713.70
2018-01-15T09:03:15.427Z,100715.34
2018-01-15T09:05:43.000Z,100708.92
2018-01-15T09:08:10.694Z,100705.59
2018-01-15T09:10:38.249Z,100706.27
2018-01-15T09:13:05.876Z,100702.27
2018-01-15T09:15:33.562Z,100700.15
2018-01-15T09:18:01.195Z,100694.80
2018-01-15T09:20:28.902Z,100696.80
2018-01-15T09:22:56.522Z,100696.69
2018-01-15T09:25:24.142Z,100684.09
2018-01-15T09:27:51.793Z,100678.22
2018-01-15T09:30:19.393Z,100674.45
2018-01-15T09:32:47.064Z,100670.45
2018-01-15T09:35:14.687Z,100665.78
2018-01-15T09:37:43.125Z,100653.45
2018-01-15T09:40:10.742Z,100646.63
2018-01-15T09:42:38.338Z,100645.31
2018-01-15T09:45:06.026Z,100648.39
2018-01-15T09:47:33.624Z,100639.30
2018-01-15T09:50:01.311Z,100638.75
2018-01-15T09:52:28.875Z,100635.16
2018-01-15T09:54:56.579Z,100628.56
2018-01-15T09:57:24.219Z,100624.67
2018-01-15T09:59:51.909Z,100623.48
2018-01-15T10:02:19.510Z,100621.59
2018-01-15T10:04:47.078Z,100613.82
2018-01-15T10:07:14.678Z,100614.47
2018-01-15T10:09:42.301Z,100604.02
2018-01-15T10:12:09.956Z,100609.25
2018-01-15T10:14:38.621Z,100601.99
2018-01-15T10:17:06.552Z,100594.91
2018-01-15T10:19:34.137Z,100584.55
2018-01-15T10:22:01.967Z,100592.18
2018-01-15T10:24:29.605Z,100576.91
2018-01-15T10:26:57.881Z,100568.72
2018-01-15T10:29:25.463Z,100554.37
2018-01-15T10:31:53.562Z,100552.20
2018-01-15T10:34:21.489Z,100555.02
2018-01-15T10:36:49.116Z,100551.78
2018-01-15T10:39:16.778Z,100532.33
2018-01-15T10:41:44.380Z,100517.16
2018-01-15T10:44:11.992Z,100519.56
2018-01-15T10:46:39.628Z,100506.00
2018-01-15T10:49:07.309Z,100507.75
2018-01-15T10:51:34.901Z,100501.30
2018-01-15T10:54:02.457Z,100485.05
2018-01-15T10:56:30.358Z,100476.30
2018-01-15T10:58:57.959Z,100462.58
2018-01-15T11:01:27.530Z,100442.84
2018-01-15T11:03:55.091Z,100437.98
2018-01-15T11:06:22.670Z,100424.56
2018-01-15T11:08:50.607Z,100412.76
2018-01-15T11:11:18.222Z,100405.09
2018-01-15T11:13:45.784Z,100395.84
2018-01-15T11:16:13.375Z,100371.92
2018-01-15T11:18:41.258Z,100354.17
2018-01-15T11:21:08.917Z,100352.16
2018-01-15T11:23:36.549Z,100351.47
2018-01-15T11:26:04.138Z,100347.95
2018-01-15T11:28:32.034Z,100332.35
2018-01-15T11:30:59.628Z,100322.29
2018-01-15T11:33:27.605Z,100321.69
2018-01-15T11:35:55.254Z,100315.08
2018-01-15T11:38:23.158Z,100304.86
2018-01-15T11:40:50.807Z,100303.74
2018-01-15T11:43:18.508Z,100285.70
2018-01-15T11:45:46.094Z,100292.16
2018-01-15T11:48:13.756Z,100266.36
2018-01-15T11:50:41.414Z,100253.69
2018-01-15T11:53:09.027Z,100257.55
2018-01-15T11:55:36.619Z,100232.41
2018-01-15T11:58:04.197Z,100230.34
2018-01-15T12:00:31.804Z,100211.61
2018-01-15T12:02:59.399Z,100198.64
2018-01-15T12:05:26.997Z,100194.20
2018-01-15T12:07:54.657Z,100191.42
2018-01-15T12:10:22.249Z,100182.51
2018-01-15T12:12:50.115Z,100163.52
2018-01-15T12:15:17.844Z,100159.16
2018-01-15T12:17:45.427Z,100153.05
2018-01-15T12:20:13.176Z,100153.02
2018-01-15T12:22:40.742Z,100140.17
2018-01-15T12:25:08.364Z,100133.23
2018-01-15T12:27:35.995Z,100136.48
2018-01-15T12:30:03.702Z,100130.52
2018-01-15T12:32:31.400Z,100120.66
2018-01-15T12:34:59.726Z,100103.95
2018-01-15T12:37:28.197Z,100103.88
2018-01-15T12:39:55.760Z,100091.92
2018-01-15T12:42:23.340Z,100081.13
2018-01-15T12:44:51.004Z,100075.18
2018-01-15T12:47:18.668Z,100059.22
2018-01-15T12:49:46.300Z,100047.44
2018-01-15T12:52:13.902Z,100028.98
2018-01-15T12:54:41.606Z,100022.53
2018-01-15T12:57:09.601Z,100006.09
2018-01-15T12:59:37.235Z,99988.40
2018-01-15T13:02:04.826Z,99968.02
2018-01-15T13:04:32.431Z,99976.51
2018-01-15T13:07:00.059Z,99975.03
2018-01-15T13:09:27.692Z,99966.53
2018-01-15T13:11:59.342Z,99958.69
2018-01-15T13:14:28.782Z,99954.16
2018-01-15T13:16:56.649Z,99952.20
2018-01-15T13:19:33.132Z,99938.45
2018-01-15T13:22:00.806Z,99927.05
2018-01-15T13:24:28.398Z,99916.96
2018-01-15T13:27:06.984Z,99913.58
2018-01-15T13:29:34.631Z,99905.66
2018-01-15T13:32:02.324Z,99905.87
2018-01-15T13:34:29.902Z,99903.08
2018-01-15T13:36:57.796Z,99886.52
2018-01-15T13:39:25.685Z,99885.33
2018-01-15T13:41:53.329Z,99868.14
2018-01-15T13:44:20.914Z,99862.34
2018-01-15T13:46:48.534Z,99861.87
2018-01-15T13:49:16.424Z,99850.59
2018-01-15T13:51:44.001Z,99837.50
2018-01-15T13:54:11.658Z,99833.36
2018-01-15T13:56:39.249Z,99815.56
2018-01-15T13:59:06.888Z,99808.98
2018-01-15T14:01:34.473Z,99807.48
2018-01-15T14:04:17.341Z,99798.79
2018-01-15T14:06:44.964Z,99794.19
2018-01-15T14:09:12.755Z,99786.02
2018-01-15T14:11:40.366Z,99781.77
2018-01-15T14:14:08.033Z,99762.93
2018-01-15T14:16:36.667Z,99760.39
2018-01-15T14:19:04.700Z,99757.17
2018-01-15T14:21:32.288Z,99730.95
2018-01-15T14:23:59.943Z,99727.06
2018-01-15T14:26:27.556Z,99727.22
2018-01-15T14:28:55.496Z,99712.92
2018-01-15T14:31:23.166Z,99717.47
2018-01-15T14:33:51.199Z,99694.91
2018-01-15T14:36:18.983Z,99691.18
2018-01-15T14:38:46.782Z,99680.41
2018-01-15T14:41:15.634Z,99675.72
2018-01-15T14:43:43.221Z,99668.74
2018-01-15T14:46:12.148Z,99647.52
2018-01-15T14:48:39.869Z,99641.30
2018-01-15T14:51:07.846Z,99629.16
2018-01-15T14:53:35.701Z,99629.47
2018-01-15T14:56:03.270Z,99620.42
2018-01-15T14:58:30.869Z,99611.07
2018-01-15T15:00:58.417Z,99610.51
2018-01-15T15:03:26.031Z,99602.91
2018-01-15T15:05:53.581Z,99601.47
2018-01-15T15:08:21.265Z,99606.69
2018-01-15T15:10:57.899Z,99583.10
2018-01-15T15:13:25.573Z,99590.86
2018-01-15T15:15:53.579Z,99590.52
2018-01-15T15:18:21.202Z,99584.41
2018-01-15T15:20:48.887Z,99573.78
2018-01-15T15:23:16.768Z,99565.55
2018-01-15T15:25:44.552Z,99572.09
2018-01-15T15:28:12.299Z,99554.92
2018-01-15T15:30:39.942Z,99548.91
2018-01-15T15:33:08.480Z,99530.71
2018-01-15T15:35:36.145Z,99530.71
2018-01-15T15:38:03.876Z,99520.80
2018-01-15T15:40:31.941Z,99516.86
2018-01-15T15:42:59.671Z,99506.16
2018-01-15T15:45:28.880Z,99490.81
2018-01-15T15:47:56.939Z,99486.62
2018-01-15T15:50:25.900Z,99486.47
2018-01-15T15:52:53.669Z,99477.27
2018-01-15T15:55:21.315Z,99483.19
2018-01-15T15:57:49.033Z,99464.11
2018-01-15T16:00:17.171Z,99462.80
2018-01-15T16:05:19.317Z,99441.12
2018-01-15T16:07:47.119Z,99443.03
2018-01-15T16:10:14.886Z,99434.97
2018-01-15T16:12:42.944Z,99430.44
2018-01-15T16:15:11.103Z,99415.96
2018-01-15T16:17:38.762Z,99420.96
2018-01-15T16:20:06.752Z,99410.36
2018-01-15T16:22:34.395Z,99399.52
2018-01-15T16:25:02.056Z,99396.59
2018-01-15T16:27:29.892Z,99386.63
2018-01-15T16:29:58.041Z,99384.00
2018-01-15T16:32:25.725Z,99369.63
2018-01-15T16:34:54.634Z,99357.52
2018-01-15T16:37:22.332Z,99353.95
2018-01-15T16:39:49.996Z,99353.65
2018-01-15T16:42:17.666Z,99335.05
2018-01-15T16:44:45.387Z,99326.45
2018-01-15T16:47:13.257Z,99318.13
2018-01-15T16:49:41.225Z,99315.92
2018-01-15T16:52:08.824Z,99303.81
2018-01-15T16:54:36.536Z,99292.56
2018-01-15T16:57:04.701Z,99293.06
2018-01-15T16:59:32.625Z,99279.86
2018-01-15T17:02:00.290Z,99275.91
2018-01-15T17:04:28.301Z,99262.84
2018-01-15T17:06:55.923Z,99265.22
2018-01-15T17:09:23.587Z,99246.55
2018-01-15T17:11:51.271Z,99247.91
2018-01-15T17:14:18.923Z,99242.20
2018-01-15T17:16:47.264Z,99239.36
2018-01-15T17:19:15.140Z,99231.16
2018-01-15T17:21:44.066Z,99225.38
2018-01-15T17:24:11.997Z,99209.95
2018-01-15T17:26:39.694Z,99202.61
2018-01-15T17:29:07.629Z,99183.78
2018-01-15T17:31:35.377Z,99198.17
2018-01-15T17:34:03.021Z,99179.74
2018-01-15T17:36:30.624Z,99179.26
2018-01-15T17:38:58.258Z,99168.75
2018-01-15T17:41:25.901Z,99160.93
2018-01-15T17:43:53.660Z,99164.15
2018-01-15T17:46:22.250Z,99153.31
2018-01-15T17:48:54.421Z,99157.99
2018-01-15T17:51:22.542Z,99130.78
2018-01-15T17:53:50.274Z,99131.11
2018-01-15T17:56:19.168Z,99125.08
2018-01-15T17:58:48.187Z,99122.47
2018-01-15T18:01:20.659Z,99118.44
2018-01-15T18:03:48.719Z,99104.38
2018-01-15T18:06:17.365Z,99099.94
2018-01-15T18:09:02.310Z,99094.16
2018-01-15T18:11:30.036Z,99074.64
2018-01-15T18:13:58.130Z,99078.99
2018-01-15T18:16:26.137Z,99076.39
2018-01-15T18:18:53.912Z,99060.34
2018-01-15T18:21:21.762Z,99063.88
2018-01-15T18:23:49.581Z,99055.44
2018-01-15T18:26:17.390Z,99050.39
2018-01-15T18:28:46.697Z,99043.42
2018-01-15T18:31:15.340Z,99036.38
2018-01-15T18:33:43.107Z,99032.92
2018-01-15T18:36:11.078Z,99020.66
2018-01-15T18:38:39.183Z,99012.11
2018-01-15T18:41:06.984Z,99002.94
2018-01-15T18:43:34.771Z,98996.47
2018-01-15T18:46:02.666Z,98989.22
2018-01-15T18:48:30.441Z,98977.89
2018-01-15T18:50:58.205Z,98966.05
2018-01-15T18:53:26.245Z,98970.32
2018-01-15T18:55:54.030Z,98962.58
2018-01-15T18:58:21.949Z,98949.22
2018-01-15T19:01:01.731Z,98943.45
2018-01-15T19:03:29.571Z,98931.03
2018-01-15T19:05:57.324Z,98926.63
2018-01-15T19:08:26.582Z,98912.30
2018-01-15T19:10:55.532Z,98919.59
2018-01-15T19:13:23.418Z,98906.20
2018-01-15T19:15:51.331Z,98899.73
2018-01-15T19:18:19.143Z,98898.88
2018-01-15T19:20:46.817Z,98888.62
2018-01-15T19:23:14.536Z,98885.12
2018-01-15T19:25:42.300Z,98881.50
2018-01-15T19:28:10.018Z,98875.92
2018-01-15T19:30:50.416Z,98871.32
2018-01-15T19:33:18.213Z,98858.30
2018-01-15T19:35:55.051Z,98852.67
2018-01-15T19:38:28.951Z,98841.45
2018-01-15T19:41:05.992Z,98819.87
2018-01-15T19:44:03.394Z,98818.29
2018-01-15T19:46:36.814Z,98810.63
2018-01-15T19:49:14.654Z,98796.27
2018-01-15T19:51:48.856Z,98801.96
2018-01-15T19:58:00.370Z,98774.52
2018-01-15T20:00:37.675Z,98762.35
2018-01-15T20:03:12.437Z,98750.95
2018-01-15T21:48:27.925Z,98721.67
2018-01-15T21:54:00.606Z,98724.38
